Pagrindinis puslapis
METAR-TAF:

METAR-TAF

Oro uostai :

Bernas, Šveicarija

platuma: 46-55N, ilguma: 007-30E, Aukštis: 505 m

Dabartinis oras

Ataskaita buvo paskelbta 33 minutes, ne 20:50 UTC
Vėjas 7 kt iš Pietų/Pietryčių
Temperatūra 10°C
Drėgmė 100%
Slėgis 1016 hPa
Matomumas 10 km arba daugiau
Mažai debesys ne aukštis 4200 ft
Su prošvaistėmis ne aukštis 5500 ft
dulksna

METAR: LSZB 282050Z AUTO 16007KT 9999 -DZ FEW042 BKN055 10/10 Q1016

Laikas: 23:23 (21:23 UTC)

Prognozė

Ataskaita buvo paskelbta 6 valandos ir 58 minutes, ne 14:25 UTC
Prognozė galioja nuo 28 metu 15 UTC su 28 metu 24 UTC
Vėjas 8 kt iš Vakarų
Matomumas 10 km arba daugiau
Mažai debesys ne aukštis 2400 ft
Tapsmas
nuo 28 metu 16 UTC su 28 metu 19 UTC
Su prošvaistėmis ne aukštis 4000 ft
lietus
Laikinai
nuo 28 metu 19 UTC su 28 metu 24 UTC
lietus

TAF: LSZB 281425Z 2815/2824 28008KT 9999 FEW024 BECMG 2816/2819 -RA BKN040 TEMPO 2819/2824 RA

Orai ataskaitas ir orų prognozės (METAR, TAF).

turimą stotys yra geltonos ir raudonos taškus žemėlapyje.

Perkelti pele per norėdami pamatyti stoties vardą.

Tada spustelėkite, norėdami matyti oro stebėjimo ir prognozės.

Norėdami pakeisti žemėlapį: spustelėkite ant žalios mygtukų su juodo kryžiaus žemyn,; žalią mygtuką su brūkšneliu, jei norite nutolinti; arba žalių rodyklių gretimoms žemėlapius.


METAR-TAF: